createdAt,value
2022-10-12T00:01:15.580Z,27.87
2022-10-12T00:03:17.651Z,29.15
2022-10-12T00:05:19.188Z,27.67
2022-10-12T00:07:21.002Z,26.80
2022-10-12T00:09:22.499Z,27.52
2022-10-12T00:11:25.138Z,27.45
2022-10-12T00:15:28.647Z,25.83
2022-10-12T00:17:30.170Z,28.05
2022-10-12T00:19:31.932Z,26.95
2022-10-12T00:21:33.447Z,27.60
2022-10-12T00:23:35.993Z,27.65
2022-10-12T00:25:39.114Z,28.75
2022-10-12T00:27:40.618Z,27.55
2022-10-12T00:29:42.212Z,26.38
2022-10-12T00:31:43.976Z,28.88
2022-10-12T00:33:45.923Z,27.17
2022-10-12T00:35:47.429Z,26.75
2022-10-12T00:37:53.082Z,26.90
2022-10-12T00:39:54.649Z,25.88
2022-10-12T00:41:56.161Z,27.13
2022-10-12T00:43:58.982Z,25.88
2022-10-12T00:46:02.180Z,26.65
2022-10-12T00:50:24.095Z,26.55
2022-10-12T00:52:30.898Z,26.88
2022-10-12T00:54:37.492Z,27.27
2022-10-12T00:56:40.259Z,27.02
2022-10-12T00:58:42.031Z,27.88
2022-10-12T01:00:43.757Z,27.92
2022-10-12T01:02:46.711Z,27.38
2022-10-12T01:06:50.444Z,26.65
2022-10-12T01:08:54.234Z,28.20
2022-10-12T01:10:55.810Z,27.50
2022-10-12T01:12:57.693Z,26.27
2022-10-12T01:14:59.632Z,28.85
2022-10-12T01:17:07.335Z,30.33
2022-10-12T01:19:27.448Z,30.42
2022-10-12T01:21:29.674Z,32.60
2022-10-12T01:23:37.201Z,30.30
2022-10-12T01:25:38.978Z,31.88
2022-10-12T01:27:51.952Z,30.95
2022-10-12T01:30:05.189Z,29.70
2022-10-12T01:32:13.914Z,31.00
2022-10-12T01:34:15.639Z,29.85
2022-10-12T01:36:23.251Z,29.77
2022-10-12T01:39:03.672Z,29.83
2022-10-12T01:41:05.363Z,31.80
2022-10-12T01:43:07.880Z,30.25
2022-10-12T01:45:11.475Z,30.88
2022-10-12T01:47:13.918Z,29.65
2022-10-12T01:49:16.902Z,30.88
2022-10-12T01:51:35.284Z,30.15
2022-10-12T01:53:36.839Z,29.42
2022-10-12T01:55:47.513Z,29.33
2022-10-12T01:57:49.626Z,30.25
2022-10-12T02:00:23.708Z,30.35
2022-10-12T02:02:30.214Z,29.25
2022-10-12T02:04:38.189Z,29.60
2022-10-12T02:06:42.598Z,30.85
2022-10-12T02:08:56.782Z,29.70
2022-10-12T02:11:10.077Z,28.85
2022-10-12T02:13:13.221Z,30.35
2022-10-12T02:17:17.813Z,31.25
2022-10-12T02:21:22.374Z,30.27
2022-10-12T02:23:24.975Z,30.25
2022-10-12T02:25:27.579Z,29.70
2022-10-12T02:27:29.605Z,29.58
2022-10-12T02:29:34.382Z,29.88
2022-10-12T02:31:39.756Z,30.45
2022-10-12T02:33:53.443Z,31.10
2022-10-12T02:36:15.406Z,29.98
2022-10-12T02:38:24.496Z,29.73
2022-10-12T02:40:26.024Z,30.60
2022-10-12T02:42:46.595Z,30.73
2022-10-12T02:44:55.515Z,29.88
2022-10-12T02:46:58.124Z,30.58
2022-10-12T02:49:00.034Z,30.55
2022-10-12T02:51:02.084Z,30.80
2022-10-12T02:53:04.499Z,31.40
2022-10-12T02:55:06.587Z,30.00
2022-10-12T02:57:08.159Z,30.67
2022-10-12T02:59:10.016Z,31.63
2022-10-12T03:01:12.069Z,31.58
2022-10-12T03:03:14.212Z,32.05
2022-10-12T03:05:15.734Z,33.35
2022-10-12T03:07:18.054Z,33.65
2022-10-12T03:09:19.650Z,31.58
2022-10-12T03:11:21.235Z,34.72
2022-10-12T03:13:23.025Z,34.33
2022-10-12T03:15:24.741Z,34.63
2022-10-12T03:17:26.350Z,34.10
2022-10-12T03:19:28.054Z,33.58
2022-10-12T03:21:29.598Z,34.00
2022-10-12T03:23:31.298Z,33.90
2022-10-12T03:25:33.198Z,34.72
2022-10-12T03:27:35.169Z,33.75
2022-10-12T03:29:37.029Z,31.90
2022-10-12T03:31:38.848Z,34.47
2022-10-12T03:33:40.533Z,33.22
2022-10-12T03:35:45.865Z,33.10
2022-10-12T03:37:47.710Z,31.63
2022-10-12T03:39:49.251Z,32.78
2022-10-12T03:41:50.824Z,32.00
2022-10-12T03:43:52.519Z,31.83
2022-10-12T03:45:54.480Z,33.15
2022-10-12T03:47:56.940Z,32.00
2022-10-12T03:50:01.092Z,32.95
2022-10-12T03:52:02.603Z,32.10
2022-10-12T03:54:04.482Z,33.03
2022-10-12T03:56:06.391Z,33.85
2022-10-12T03:58:07.936Z,31.45
2022-10-12T04:00:09.878Z,33.28
2022-10-12T04:02:16.505Z,31.83
2022-10-12T04:04:18.334Z,33.55
2022-10-12T04:06:19.873Z,32.17
2022-10-12T04:08:22.413Z,32.50
2022-10-12T04:10:24.031Z,32.70
2022-10-12T04:12:25.560Z,32.15
2022-10-12T04:14:27.433Z,34.40
2022-10-12T04:16:31.131Z,31.35
2022-10-12T04:18:33.278Z,32.33
2022-10-12T04:20:35.316Z,33.67
2022-10-12T04:22:36.932Z,34.45
2022-10-12T04:24:38.691Z,33.08
2022-10-12T04:26:40.679Z,32.00
2022-10-12T04:28:42.414Z,32.67
2022-10-12T04:30:45.131Z,33.28
2022-10-12T04:32:47.016Z,30.88
2022-10-12T04:34:48.610Z,31.85
2022-10-12T04:36:50.278Z,31.55
2022-10-12T04:38:55.885Z,34.25
2022-10-12T04:41:00.206Z,32.92
2022-10-12T04:43:02.060Z,31.75
2022-10-12T04:45:04.519Z,33.10
2022-10-12T04:47:06.042Z,33.08
2022-10-12T04:49:07.867Z,33.40
2022-10-12T04:51:10.035Z,33.07
2022-10-12T04:53:11.649Z,31.92
2022-10-12T04:55:13.176Z,33.10
2022-10-12T04:57:14.956Z,33.58
2022-10-12T04:59:16.533Z,33.15
2022-10-12T05:01:18.169Z,33.20
2022-10-12T05:03:20.040Z,33.05
2022-10-12T05:05:21.648Z,32.60
2022-10-12T05:07:23.407Z,34.38
2022-10-12T05:09:25.252Z,31.05
2022-10-12T05:11:26.739Z,32.35
2022-10-12T05:13:29.138Z,32.47
2022-10-12T05:15:31.005Z,35.60
2022-10-12T05:17:32.855Z,32.55
2022-10-12T05:19:35.236Z,32.40
2022-10-12T05:21:37.388Z,32.58
2022-10-12T05:23:39.490Z,32.27
2022-10-12T05:25:41.464Z,31.25
2022-10-12T05:27:43.467Z,31.63
2022-10-12T05:29:45.173Z,30.50
2022-10-12T05:31:46.749Z,30.05
2022-10-12T05:33:48.744Z,29.02
2022-10-12T05:35:56.216Z,30.40
2022-10-12T05:37:58.758Z,30.65
2022-10-12T05:40:00.636Z,28.83
2022-10-12T05:42:02.227Z,31.08
2022-10-12T05:44:04.047Z,30.20
2022-10-12T05:46:05.970Z,29.75
2022-10-12T05:48:07.715Z,28.98
2022-10-12T05:50:09.719Z,28.90
2022-10-12T05:52:11.598Z,27.95
2022-10-12T05:54:16.272Z,25.15
2022-10-12T05:56:17.805Z,23.73
2022-10-12T05:58:19.606Z,24.50
2022-10-12T06:00:21.639Z,22.08
2022-10-12T06:02:23.162Z,21.33
2022-10-12T06:04:25.319Z,21.75
2022-10-12T06:06:27.067Z,21.33
2022-10-12T06:08:29.406Z,20.10
2022-10-12T06:10:31.984Z,21.13
2022-10-12T06:12:33.639Z,20.05
2022-10-12T06:14:35.168Z,20.50
2022-10-12T06:16:37.053Z,20.40
2022-10-12T06:18:38.833Z,19.65
2022-10-12T06:20:40.601Z,20.48
2022-10-12T06:22:42.446Z,18.60
2022-10-12T06:24:44.498Z,20.13
2022-10-12T06:26:46.610Z,20.15
2022-10-12T06:28:48.673Z,19.73
2022-10-12T06:30:53.908Z,20.65
2022-10-12T06:32:55.438Z,20.65
2022-10-12T06:34:57.649Z,20.63
2022-10-12T06:37:01.782Z,19.40
2022-10-12T06:39:04.120Z,20.08
2022-10-12T06:41:05.982Z,20.50
2022-10-12T06:43:07.552Z,19.63
2022-10-12T06:45:09.526Z,20.25
2022-10-12T06:47:11.421Z,20.08
2022-10-12T06:49:13.372Z,20.05
2022-10-12T06:51:14.980Z,19.42
2022-10-12T06:53:16.999Z,19.55
2022-10-12T06:55:19.195Z,18.90
2022-10-12T06:57:21.280Z,19.58
2022-10-12T06:59:23.939Z,18.75
2022-10-12T07:01:25.901Z,19.40
2022-10-12T07:03:27.580Z,18.98
2022-10-12T07:05:30.205Z,17.92
2022-10-12T07:07:32.769Z,18.00
2022-10-12T07:09:34.540Z,18.67
2022-10-12T07:11:36.589Z,18.27
2022-10-12T07:13:38.528Z,16.70
2022-10-12T07:15:40.215Z,17.73
2022-10-12T07:17:42.201Z,17.77
2022-10-12T07:19:44.248Z,17.45
2022-10-12T07:21:46.202Z,17.17
2022-10-12T07:23:48.243Z,17.13
2022-10-12T07:25:50.384Z,17.98
2022-10-12T07:27:51.975Z,17.13
2022-10-12T07:29:53.883Z,18.98
2022-10-12T07:31:55.461Z,17.05
2022-10-12T07:33:57.822Z,17.20
2022-10-12T07:36:20.775Z,16.60
2022-10-12T07:38:21.414Z,16.25
2022-10-12T07:40:23.057Z,15.40
2022-10-12T07:42:25.414Z,15.57
2022-10-12T07:44:27.148Z,15.73
2022-10-12T07:46:28.705Z,15.80
2022-10-12T07:48:30.619Z,14.32
2022-10-12T07:50:32.276Z,13.00
2022-10-12T07:52:34.131Z,13.00
2022-10-12T07:54:35.889Z,13.88
2022-10-12T07:56:37.801Z,13.70
2022-10-12T07:58:39.483Z,13.18
2022-10-12T08:00:41.220Z,13.40
2022-10-12T08:02:42.896Z,13.50
2022-10-12T08:04:44.971Z,14.43
2022-10-12T08:06:46.889Z,14.40
2022-10-12T08:08:48.684Z,14.07
2022-10-12T08:10:50.755Z,13.38
2022-10-12T08:12:52.542Z,12.98
2022-10-12T08:14:54.130Z,13.02
2022-10-12T08:16:55.681Z,13.80
2022-10-12T08:18:59.627Z,14.20
2022-10-12T08:21:03.884Z,14.70
2022-10-12T08:23:05.420Z,15.05
2022-10-12T08:25:07.474Z,15.05
2022-10-12T08:27:09.279Z,14.13
2022-10-12T08:29:10.798Z,13.32
2022-10-12T08:31:16.561Z,14.10
2022-10-12T08:33:18.385Z,14.55
2022-10-12T08:35:20.396Z,13.43
2022-10-12T08:37:22.142Z,12.37
2022-10-12T08:39:23.956Z,11.95
2022-10-12T08:41:44.282Z,10.75
2022-10-12T08:43:46.155Z,11.02
2022-10-12T08:45:51.229Z,13.07
2022-10-12T08:47:55.744Z,11.18
2022-10-12T08:49:58.624Z,11.35
2022-10-12T08:52:03.420Z,9.32
2022-10-12T08:54:12.304Z,9.55
2022-10-12T08:56:18.394Z,8.75
2022-10-12T08:58:21.642Z,8.93
2022-10-12T09:00:23.384Z,8.35
2022-10-12T09:02:43.948Z,8.07
2022-10-12T09:04:51.333Z,8.25
2022-10-12T09:06:58.308Z,8.15
2022-10-12T09:09:10.012Z,8.85
2022-10-12T09:11:17.761Z,7.40
2022-10-12T09:13:19.392Z,9.85
2022-10-12T09:15:41.719Z,8.77
2022-10-12T09:17:51.092Z,8.63
2022-10-12T09:19:59.472Z,8.23
2022-10-12T09:22:02.654Z,7.80
2022-10-12T09:24:06.499Z,7.53
2022-10-12T09:26:14.647Z,9.13
2022-10-12T09:28:16.491Z,8.38
2022-10-12T09:30:18.927Z,8.20
2022-10-12T09:32:39.246Z,7.88
2022-10-12T09:34:42.896Z,7.65
2022-10-12T09:36:44.490Z,6.90
2022-10-12T09:38:46.549Z,8.43
2022-10-12T09:40:49.469Z,7.25
2022-10-12T09:42:51.510Z,6.18
2022-10-12T09:44:57.638Z,5.77
2022-10-12T09:47:00.615Z,6.10
2022-10-12T09:49:02.453Z,6.03
2022-10-12T09:51:04.224Z,6.15
2022-10-12T09:53:12.831Z,6.90
2022-10-12T09:57:40.452Z,5.88
2022-10-12T09:59:45.386Z,5.78
2022-10-12T10:02:04.719Z,5.45
2022-10-12T10:04:08.862Z,5.38
2022-10-12T10:06:10.600Z,5.50
2022-10-12T10:08:15.080Z,6.03
2022-10-12T10:10:26.564Z,5.60
2022-10-12T10:12:30.464Z,5.85
2022-10-12T10:14:32.631Z,5.70
2022-10-12T10:16:46.102Z,5.70
2022-10-12T10:18:50.159Z,4.90
2022-10-12T10:20:53.499Z,5.35
2022-10-12T10:22:55.431Z,5.05
2022-10-12T10:25:00.560Z,5.13
2022-10-12T10:27:05.316Z,5.63
2022-10-12T10:29:23.704Z,5.32
2022-10-12T10:31:28.028Z,5.38
2022-10-12T10:33:34.573Z,4.88
2022-10-12T10:35:36.760Z,6.00
2022-10-12T10:37:46.407Z,5.53
2022-10-12T10:39:49.506Z,5.00
2022-10-12T10:41:51.863Z,4.65
2022-10-12T10:43:53.683Z,5.30
2022-10-12T10:45:57.056Z,4.85
2022-10-12T10:48:02.401Z,5.47
2022-10-12T10:50:05.540Z,6.35
2022-10-12T10:54:23.963Z,4.97
2022-10-12T10:56:26.989Z,5.95
2022-10-12T10:58:43.523Z,4.70
2022-10-12T11:00:46.725Z,5.45
2022-10-12T11:02:51.217Z,5.55
2022-10-12T11:05:05.857Z,5.80
2022-10-12T11:07:29.307Z,4.43
2022-10-12T11:09:38.021Z,4.50
2022-10-12T11:11:40.873Z,5.70
2022-10-12T11:13:52.174Z,5.18
2022-10-12T11:16:07.633Z,5.40
2022-10-12T11:18:18.665Z,5.57
2022-10-12T11:20:20.269Z,4.80
2022-10-12T11:22:31.580Z,5.50
2022-10-12T11:24:40.606Z,4.40
2022-10-12T11:26:46.329Z,4.88
2022-10-12T11:28:48.615Z,4.97
2022-10-12T11:30:53.365Z,4.20
2022-10-12T11:32:59.599Z,4.35
2022-10-12T11:35:03.103Z,4.72
2022-10-12T11:37:19.144Z,4.53
2022-10-12T11:39:36.847Z,4.68
2022-10-12T11:42:03.248Z,5.25
2022-10-12T11:44:13.563Z,4.68
2022-10-12T11:46:17.882Z,4.55
2022-10-12T11:48:27.099Z,4.80
2022-10-12T11:50:30.452Z,4.65
2022-10-12T11:52:41.035Z,4.47
2022-10-12T11:54:51.970Z,3.90
2022-10-12T11:56:56.242Z,5.47
2022-10-12T11:59:01.998Z,5.10
2022-10-12T12:01:23.706Z,4.60
2022-10-12T12:03:43.703Z,4.35
2022-10-12T12:05:45.236Z,4.43
2022-10-12T12:07:48.166Z,4.05
2022-10-12T12:09:50.905Z,4.15
2022-10-12T12:12:06.946Z,3.55
2022-10-12T12:14:20.971Z,2.88
2022-10-12T12:16:26.667Z,3.42
2022-10-12T12:18:29.290Z,3.25
2022-10-12T12:20:46.786Z,2.95
2022-10-12T12:22:53.158Z,3.60
2022-10-12T12:24:58.244Z,4.32
2022-10-12T12:27:00.182Z,4.05
2022-10-12T12:29:12.460Z,3.65
2022-10-12T12:31:23.398Z,3.78
2022-10-12T12:33:25.306Z,3.53
2022-10-12T12:35:29.703Z,3.28
2022-10-12T12:37:34.028Z,3.15
2022-10-12T12:39:36.000Z,3.40
2022-10-12T12:42:00.560Z,3.17
2022-10-12T12:44:04.150Z,3.13
2022-10-12T12:46:08.124Z,3.60
2022-10-12T12:48:10.843Z,3.03
2022-10-12T12:50:31.549Z,3.10
2022-10-12T12:52:34.689Z,2.83
2022-10-12T12:56:56.498Z,2.50
2022-10-12T12:58:58.502Z,2.80
2022-10-12T13:01:19.093Z,3.20
2022-10-12T13:03:32.755Z,3.25
2022-10-12T13:05:40.749Z,2.95
2022-10-12T13:07:42.513Z,3.05
2022-10-12T13:09:44.035Z,3.05
2022-10-12T13:11:54.916Z,2.97
2022-10-12T13:14:15.092Z,3.33
2022-10-12T13:17:30.221Z,2.50
2022-10-12T13:19:05.271Z,2.72
2022-10-12T13:21:08.344Z,2.95
2022-10-12T13:23:15.866Z,3.25
2022-10-12T13:25:38.554Z,2.95
2022-10-12T13:27:46.717Z,2.50
2022-10-12T13:29:57.054Z,3.05
2022-10-12T13:32:00.580Z,2.92
2022-10-12T13:34:19.448Z,2.80
2022-10-12T13:36:25.244Z,2.60
2022-10-12T13:38:28.288Z,3.35
2022-10-12T13:40:29.990Z,3.13
2022-10-12T13:42:34.504Z,2.42
2022-10-12T13:44:36.461Z,2.80
2022-10-12T13:46:48.742Z,2.90
2022-10-12T13:49:00.007Z,2.83
2022-10-12T13:51:03.084Z,3.17
2022-10-12T13:53:14.493Z,3.20
2022-10-12T13:55:16.613Z,2.88
2022-10-12T13:57:23.779Z,3.63
2022-10-12T13:59:26.912Z,3.22
2022-10-12T14:01:28.683Z,3.47
2022-10-12T14:03:41.012Z,3.40
2022-10-12T14:05:44.158Z,3.05
2022-10-12T14:07:46.261Z,3.08
2022-10-12T14:09:52.870Z,3.42
2022-10-12T14:11:55.719Z,3.80
2022-10-12T14:13:58.022Z,3.35
2022-10-12T14:16:00.996Z,3.67
2022-10-12T14:18:03.015Z,3.55
2022-10-12T14:20:34.866Z,3.40
2022-10-12T14:22:36.679Z,3.78
2022-10-12T14:24:38.259Z,3.90
2022-10-12T14:26:43.687Z,4.15
2022-10-12T14:28:45.502Z,3.90
2022-10-12T14:30:51.005Z,3.47
2022-10-12T14:32:59.406Z,4.60
2022-10-12T14:35:21.022Z,4.05
2022-10-12T14:37:27.238Z,5.60
2022-10-12T14:39:28.799Z,5.32
2022-10-12T14:41:48.942Z,5.55
2022-10-12T14:44:09.685Z,4.38
2022-10-12T14:46:12.169Z,5.05
2022-10-12T14:48:17.309Z,5.28
2022-10-12T14:50:20.519Z,4.53
2022-10-12T14:52:25.263Z,4.75
2022-10-12T14:54:27.344Z,4.85
2022-10-12T14:56:29.439Z,4.82
2022-10-12T14:58:31.151Z,4.63
2022-10-12T15:00:33.718Z,5.22
2022-10-12T15:02:36.887Z,5.75
2022-10-12T15:04:38.424Z,5.15
2022-10-12T15:06:40.331Z,6.10
2022-10-12T15:08:42.003Z,6.28
2022-10-12T15:10:43.623Z,5.50
2022-10-12T15:12:46.036Z,5.65
2022-10-12T15:14:49.389Z,5.80
2022-10-12T15:16:51.230Z,6.47
2022-10-12T15:18:53.485Z,5.73
2022-10-12T15:20:56.332Z,5.53
2022-10-12T15:24:59.881Z,4.68
2022-10-12T15:27:01.587Z,5.35
2022-10-12T15:29:03.884Z,5.57
2022-10-12T15:31:17.624Z,5.47
2022-10-12T15:33:20.356Z,5.25
2022-10-12T15:35:23.262Z,5.57
2022-10-12T15:39:31.796Z,4.75
2022-10-12T15:41:33.482Z,5.95
2022-10-12T15:43:38.099Z,4.95
2022-10-12T15:45:42.679Z,5.43
2022-10-12T15:47:45.498Z,6.47
2022-10-12T15:51:49.539Z,6.18
2022-10-12T15:53:51.850Z,6.75
2022-10-12T15:55:54.290Z,6.72
2022-10-12T15:57:56.324Z,113.00
2022-10-12T15:59:57.873Z,21.75
2022-10-12T16:01:59.754Z,18.33
2022-10-12T16:04:02.043Z,5.90
2022-10-12T16:06:03.576Z,6.00
2022-10-12T16:08:05.738Z,6.28
2022-10-12T16:10:07.752Z,5.87
2022-10-12T16:12:09.491Z,6.82
2022-10-12T16:14:14.071Z,5.70
2022-10-12T16:16:16.536Z,6.75
2022-10-12T16:18:18.216Z,6.85
2022-10-12T16:20:19.933Z,7.68
2022-10-12T16:22:21.580Z,7.47
2022-10-12T16:24:23.826Z,7.60
2022-10-12T16:26:26.927Z,7.47
2022-10-12T16:28:28.659Z,7.40
2022-10-12T16:30:30.263Z,8.00
2022-10-12T16:32:32.084Z,8.48
2022-10-12T16:34:33.932Z,6.95
2022-10-12T16:36:35.485Z,6.50
2022-10-12T16:38:37.290Z,6.32
2022-10-12T16:40:39.294Z,6.85
2022-10-12T16:42:40.844Z,6.65
2022-10-12T16:44:42.790Z,6.90
2022-10-12T16:46:44.502Z,9.77
2022-10-12T16:48:46.000Z,14.48
2022-10-12T16:50:48.112Z,7.13
2022-10-12T16:52:50.058Z,7.72
2022-10-12T16:54:52.337Z,6.47
2022-10-12T16:56:54.450Z,6.43
2022-10-12T16:58:56.571Z,7.32
2022-10-12T17:00:58.640Z,7.15
2022-10-12T17:03:00.503Z,7.43
2022-10-12T17:05:02.381Z,7.07
2022-10-12T17:07:04.212Z,6.40
2022-10-12T17:09:06.235Z,6.33
2022-10-12T17:11:08.778Z,7.85
2022-10-12T17:13:10.765Z,8.00
2022-10-12T17:15:12.591Z,8.40
2022-10-12T17:17:14.624Z,7.70
2022-10-12T17:19:17.146Z,7.95
2022-10-12T17:21:19.097Z,7.25
2022-10-12T17:23:20.795Z,7.82
2022-10-12T17:25:22.450Z,8.75
2022-10-12T17:27:28.480Z,8.68
2022-10-12T17:29:36.323Z,9.05
2022-10-12T17:31:38.099Z,8.23
2022-10-12T17:33:40.573Z,7.90
2022-10-12T17:35:42.151Z,8.75
2022-10-12T17:37:43.763Z,7.93
2022-10-12T17:39:48.285Z,8.48
2022-10-12T17:41:49.960Z,7.88
2022-10-12T17:43:51.596Z,8.48
2022-10-12T17:45:53.443Z,8.07
2022-10-12T17:47:55.263Z,9.43
2022-10-12T17:49:56.864Z,8.23
2022-10-12T17:51:58.789Z,8.60
2022-10-12T17:54:00.420Z,9.05
2022-10-12T17:56:03.049Z,9.02
2022-10-12T17:58:05.103Z,8.52
2022-10-12T18:00:07.656Z,8.48
2022-10-12T18:02:09.930Z,9.82
2022-10-12T18:06:15.945Z,10.30
2022-10-12T18:08:17.510Z,9.45
2022-10-12T18:10:22.382Z,8.60
2022-10-12T18:12:26.337Z,9.55
2022-10-12T18:14:28.535Z,9.25
2022-10-12T18:16:31.570Z,8.80
2022-10-12T18:18:33.383Z,9.07
2022-10-12T18:20:34.898Z,11.85
2022-10-12T18:22:36.893Z,11.50
2022-10-12T18:24:39.679Z,10.55
2022-10-12T18:26:42.223Z,11.13
2022-10-12T18:28:49.136Z,10.27
2022-10-12T18:30:50.874Z,10.20
2022-10-12T18:32:52.478Z,9.35
2022-10-12T18:34:54.642Z,10.00
2022-10-12T18:36:56.224Z,10.05
2022-10-12T18:39:00.110Z,10.40
2022-10-12T18:41:05.914Z,15.32
2022-10-12T18:43:07.502Z,13.90
2022-10-12T18:45:09.319Z,14.93
2022-10-12T18:47:11.073Z,11.80
2022-10-12T18:49:12.684Z,11.68
2022-10-12T18:51:23.814Z,11.07
2022-10-12T18:53:28.054Z,11.18
2022-10-12T18:55:29.599Z,10.85
2022-10-12T18:57:33.492Z,9.50
2022-10-12T18:59:38.814Z,9.10
2022-10-12T19:01:40.594Z,9.35
2022-10-12T19:03:42.340Z,9.60
2022-10-12T19:05:44.127Z,8.23
2022-10-12T19:07:45.694Z,9.13
2022-10-12T19:09:47.209Z,9.30
2022-10-12T19:11:49.039Z,8.80
2022-10-12T19:13:51.718Z,8.85
2022-10-12T19:15:53.379Z,8.05
2022-10-12T19:17:55.446Z,8.50
2022-10-12T19:19:58.818Z,8.88
2022-10-12T19:22:00.352Z,8.13
2022-10-12T19:24:03.093Z,8.23
2022-10-12T19:26:05.770Z,9.40
2022-10-12T19:28:07.311Z,10.02
2022-10-12T19:30:09.339Z,9.65
2022-10-12T19:32:10.925Z,9.45
2022-10-12T19:34:13.394Z,8.98
2022-10-12T19:36:16.435Z,8.52
2022-10-12T19:38:17.988Z,9.20
2022-10-12T19:40:19.711Z,9.05
2022-10-12T19:42:21.559Z,9.35
2022-10-12T19:44:23.414Z,10.07
2022-10-12T19:46:25.165Z,9.40
2022-10-12T19:48:26.920Z,17.90
2022-10-12T19:50:28.460Z,25.02
2022-10-12T19:52:30.151Z,16.48
2022-10-12T19:54:35.948Z,9.68
2022-10-12T19:56:38.326Z,8.43
2022-10-12T19:58:40.539Z,8.43
2022-10-12T20:00:42.427Z,9.65
2022-10-12T20:02:44.313Z,9.00
2022-10-12T20:04:45.869Z,9.05
2022-10-12T20:06:47.673Z,8.50
2022-10-12T20:08:49.260Z,9.15
2022-10-12T20:10:51.254Z,9.07
2022-10-12T20:12:53.041Z,9.38
2022-10-12T20:14:55.199Z,8.50
2022-10-12T20:16:56.803Z,10.45
2022-10-12T20:18:58.932Z,9.70
2022-10-12T20:21:04.212Z,8.32
2022-10-12T20:23:05.771Z,9.10
2022-10-12T20:25:09.824Z,8.57
2022-10-12T20:27:11.661Z,9.90
2022-10-12T20:29:13.280Z,9.27
2022-10-12T20:31:15.183Z,9.02
2022-10-12T20:33:16.872Z,8.70
2022-10-12T20:35:19.262Z,9.02
2022-10-12T20:37:21.549Z,9.07
2022-10-12T20:39:23.543Z,9.23
2022-10-12T20:41:25.702Z,8.77
2022-10-12T20:43:27.677Z,8.50
2022-10-12T20:45:29.226Z,8.57
2022-10-12T20:47:31.070Z,8.35
2022-10-12T20:49:33.019Z,14.40
2022-10-12T20:51:44.601Z,10.15
2022-10-12T20:53:46.251Z,9.75
2022-10-12T20:55:48.096Z,10.20
2022-10-12T20:57:49.657Z,9.35
2022-10-12T20:59:51.622Z,10.65
2022-10-12T21:01:53.359Z,10.23
2022-10-12T21:03:55.014Z,9.93
2022-10-12T21:05:57.619Z,9.43
2022-10-12T21:07:59.358Z,9.65
2022-10-12T21:10:01.223Z,10.18
2022-10-12T21:12:02.887Z,9.30
2022-10-12T21:14:04.641Z,9.43
2022-10-12T21:16:06.622Z,8.93
2022-10-12T21:18:08.264Z,9.70
2022-10-12T21:20:10.352Z,9.60
2022-10-12T21:22:11.861Z,10.80
2022-10-12T21:24:13.693Z,10.02
2022-10-12T21:26:19.636Z,10.00
2022-10-12T21:28:22.049Z,9.77
2022-10-12T21:30:23.766Z,9.60
2022-10-12T21:32:25.506Z,9.38
2022-10-12T21:34:27.082Z,9.63
2022-10-12T21:36:29.246Z,9.43
2022-10-12T21:38:31.025Z,9.40
2022-10-12T21:40:33.070Z,9.65
2022-10-12T21:42:34.631Z,11.13
2022-10-12T21:44:36.371Z,10.35
2022-10-12T21:46:38.189Z,9.43
2022-10-12T21:48:40.059Z,9.32
2022-10-12T21:50:41.755Z,9.93
2022-10-12T21:52:44.351Z,9.40
2022-10-12T21:54:47.879Z,9.35
2022-10-12T21:56:49.680Z,9.40
2022-10-12T21:58:51.941Z,9.75
2022-10-12T22:00:53.568Z,9.18
2022-10-12T22:02:55.519Z,9.18
2022-10-12T22:04:57.285Z,9.75
2022-10-12T22:07:00.630Z,9.93
2022-10-12T22:09:05.257Z,10.25
2022-10-12T22:11:08.287Z,10.55
2022-10-12T22:13:09.846Z,10.93
2022-10-12T22:15:12.018Z,14.85
2022-10-12T22:17:13.518Z,15.18
2022-10-12T22:19:18.676Z,15.73
2022-10-12T22:21:20.666Z,13.63
2022-10-12T22:23:22.578Z,14.95
2022-10-12T22:25:24.222Z,13.50
2022-10-12T22:27:26.012Z,14.65
2022-10-12T22:29:27.623Z,13.35
2022-10-12T22:31:29.148Z,13.75
2022-10-12T22:33:31.013Z,13.55
2022-10-12T22:35:32.557Z,14.60
2022-10-12T22:37:34.182Z,13.15
2022-10-12T22:39:36.033Z,14.27
2022-10-12T22:41:37.585Z,13.85
2022-10-12T22:43:39.379Z,13.23
2022-10-12T22:45:41.075Z,12.60
2022-10-12T22:47:42.790Z,12.85
2022-10-12T22:49:44.397Z,11.90
2022-10-12T22:51:46.264Z,12.32
2022-10-12T22:53:48.371Z,12.88
2022-10-12T22:55:53.909Z,13.25
2022-10-12T22:57:55.712Z,12.95
2022-10-12T22:59:57.223Z,12.48
2022-10-12T23:01:58.876Z,12.88
2022-10-12T23:04:00.614Z,13.25
2022-10-12T23:06:02.455Z,13.57
2022-10-12T23:08:04.127Z,13.35
2022-10-12T23:10:06.118Z,12.75
2022-10-12T23:12:08.022Z,12.60
2022-10-12T23:14:10.550Z,11.95
2022-10-12T23:16:13.735Z,12.27
2022-10-12T23:18:15.373Z,11.07
2022-10-12T23:20:17.033Z,11.93
2022-10-12T23:22:19.094Z,12.68
2022-10-12T23:24:21.011Z,11.98
2022-10-12T23:26:24.239Z,12.25
2022-10-12T23:28:26.233Z,11.98
2022-10-12T23:30:27.837Z,12.38
2022-10-12T23:32:30.521Z,12.38
2022-10-12T23:34:32.323Z,12.45
2022-10-12T23:36:34.315Z,12.02
2022-10-12T23:38:36.957Z,13.70
2022-10-12T23:40:38.654Z,12.63
2022-10-12T23:42:40.223Z,13.07
2022-10-12T23:44:41.813Z,12.48
2022-10-12T23:46:43.737Z,12.00
2022-10-12T23:48:45.289Z,13.00
2022-10-12T23:50:47.052Z,12.52
2022-10-12T23:52:48.815Z,13.10
2022-10-12T23:54:50.394Z,13.38
2022-10-12T23:56:52.039Z,13.27
2022-10-12T23:58:53.798Z,13.25
